sensor_id;sensor_type;location;lat;lon;timestamp;P1;durP1;ratioP1;P2;durP2;ratioP2
35917;SDS011;22011;59.912;30.300;2023-05-10T00:00:32;11.63;;;4.57;;
35917;SDS011;22011;59.912;30.300;2023-05-10T00:02:59;15.00;;;5.13;;
35917;SDS011;22011;59.912;30.300;2023-05-10T00:05:28;17.85;;;5.43;;
35917;SDS011;22011;59.912;30.300;2023-05-10T00:07:55;11.43;;;4.90;;
35917;SDS011;22011;59.912;30.300;2023-05-10T00:10:23;11.45;;;5.57;;
35917;SDS011;22011;59.912;30.300;2023-05-10T00:12:51;13.88;;;5.88;;
35917;SDS011;22011;59.912;30.300;2023-05-10T00:15:18;13.00;;;4.70;;
35917;SDS011;22011;59.912;30.300;2023-05-10T00:17:45;13.40;;;4.95;;
35917;SDS011;22011;59.912;30.300;2023-05-10T00:20:13;10.82;;;4.40;;
35917;SDS011;22011;59.912;30.300;2023-05-10T00:22:42;12.38;;;5.38;;
35917;SDS011;22011;59.912;30.300;2023-05-10T00:25:09;16.08;;;5.40;;
35917;SDS011;22011;59.912;30.300;2023-05-10T00:27:37;13.98;;;6.03;;
35917;SDS011;22011;59.912;30.300;2023-05-10T00:30:05;12.55;;;6.03;;
35917;SDS011;22011;59.912;30.300;2023-05-10T00:32:34;19.00;;;5.63;;
35917;SDS011;22011;59.912;30.300;2023-05-10T00:35:04;15.15;;;6.32;;
35917;SDS011;22011;59.912;30.300;2023-05-10T00:37:32;16.08;;;7.00;;
35917;SDS011;22011;59.912;30.300;2023-05-10T00:40:01;16.92;;;8.38;;
35917;SDS011;22011;59.912;30.300;2023-05-10T00:42:28;14.73;;;8.05;;
35917;SDS011;22011;59.912;30.300;2023-05-10T00:44:56;17.83;;;7.25;;
35917;SDS011;22011;59.912;30.300;2023-05-10T00:47:23;12.88;;;6.55;;
35917;SDS011;22011;59.912;30.300;2023-05-10T00:49:51;13.80;;;6.97;;
35917;SDS011;22011;59.912;30.300;2023-05-10T00:52:19;20.10;;;7.38;;
35917;SDS011;22011;59.912;30.300;2023-05-10T00:54:46;12.25;;;6.45;;
35917;SDS011;22011;59.912;30.300;2023-05-10T00:57:15;23.70;;;8.20;;
35917;SDS011;22011;59.912;30.300;2023-05-10T00:59:43;16.02;;;6.75;;
35917;SDS011;22011;59.912;30.300;2023-05-10T01:02:11;13.45;;;7.22;;
35917;SDS011;22011;59.912;30.300;2023-05-10T01:04:38;14.45;;;7.32;;
35917;SDS011;22011;59.912;30.300;2023-05-10T01:07:06;14.45;;;7.53;;
35917;SDS011;22011;59.912;30.300;2023-05-10T01:09:34;15.32;;;8.25;;
35917;SDS011;22011;59.912;30.300;2023-05-10T01:12:01;12.77;;;7.15;;
35917;SDS011;22011;59.912;30.300;2023-05-10T01:14:31;17.73;;;7.28;;
35917;SDS011;22011;59.912;30.300;2023-05-10T01:16:59;16.10;;;7.03;;
35917;SDS011;22011;59.912;30.300;2023-05-10T01:19:28;16.60;;;7.05;;
35917;SDS011;22011;59.912;30.300;2023-05-10T01:22:02;12.05;;;6.03;;
35917;SDS011;22011;59.912;30.300;2023-05-10T01:24:52;12.63;;;6.78;;
35917;SDS011;22011;59.912;30.300;2023-05-10T01:31:01;11.75;;;5.85;;
35917;SDS011;22011;59.912;30.300;2023-05-10T01:33:36;9.77;;;4.85;;
35917;SDS011;22011;59.912;30.300;2023-05-10T01:36:08;16.90;;;6.10;;
35917;SDS011;22011;59.912;30.300;2023-05-10T01:38:42;12.23;;;5.88;;
35917;SDS011;22011;59.912;30.300;2023-05-10T01:41:17;18.02;;;6.60;;
35917;SDS011;22011;59.912;30.300;2023-05-10T01:43:50;13.82;;;6.57;;
35917;SDS011;22011;59.912;30.300;2023-05-10T01:46:26;17.02;;;6.28;;
35917;SDS011;22011;59.912;30.300;2023-05-10T01:48:57;17.25;;;5.93;;
35917;SDS011;22011;59.912;30.300;2023-05-10T01:51:29;17.35;;;6.80;;
35917;SDS011;22011;59.912;30.300;2023-05-10T01:54:03;15.15;;;6.40;;
35917;SDS011;22011;59.912;30.300;2023-05-10T01:56:33;14.87;;;6.70;;
35917;SDS011;22011;59.912;30.300;2023-05-10T01:59:05;13.73;;;6.40;;
35917;SDS011;22011;59.912;30.300;2023-05-10T02:01:35;16.88;;;6.55;;
35917;SDS011;22011;59.912;30.300;2023-05-10T02:04:05;13.40;;;6.30;;
35917;SDS011;22011;59.912;30.300;2023-05-10T02:09:02;15.80;;;7.28;;
35917;SDS011;22011;59.912;30.300;2023-05-10T02:11:30;14.77;;;6.55;;
35917;SDS011;22011;59.912;30.300;2023-05-10T02:13:59;15.88;;;6.85;;
35917;SDS011;22011;59.912;30.300;2023-05-10T02:16:28;16.05;;;6.57;;
35917;SDS011;22011;59.912;30.300;2023-05-10T02:18:57;20.85;;;7.35;;
35917;SDS011;22011;59.912;30.300;2023-05-10T02:21:27;17.63;;;7.18;;
35917;SDS011;22011;59.912;30.300;2023-05-10T02:23:56;20.90;;;7.93;;
35917;SDS011;22011;59.912;30.300;2023-05-10T02:26:24;17.67;;;7.50;;
35917;SDS011;22011;59.912;30.300;2023-05-10T02:28:53;25.77;;;8.07;;
35917;SDS011;22011;59.912;30.300;2023-05-10T02:31:24;21.95;;;7.57;;
35917;SDS011;22011;59.912;30.300;2023-05-10T02:33:52;20.05;;;6.95;;
35917;SDS011;22011;59.912;30.300;2023-05-10T02:36:21;29.23;;;8.23;;
35917;SDS011;22011;59.912;30.300;2023-05-10T02:38:51;19.75;;;7.85;;
35917;SDS011;22011;59.912;30.300;2023-05-10T02:41:19;19.90;;;6.97;;
35917;SDS011;22011;59.912;30.300;2023-05-10T02:43:49;18.77;;;8.07;;
35917;SDS011;22011;59.912;30.300;2023-05-10T02:46:18;19.55;;;7.43;;
35917;SDS011;22011;59.912;30.300;2023-05-10T02:48:46;27.15;;;8.20;;
35917;SDS011;22011;59.912;30.300;2023-05-10T02:51:13;19.83;;;7.88;;
35917;SDS011;22011;59.912;30.300;2023-05-10T02:53:45;31.70;;;8.52;;
35917;SDS011;22011;59.912;30.300;2023-05-10T02:56:17;28.38;;;8.30;;
35917;SDS011;22011;59.912;30.300;2023-05-10T02:58:51;17.65;;;7.70;;
35917;SDS011;22011;59.912;30.300;2023-05-10T03:01:19;21.55;;;9.55;;
35917;SDS011;22011;59.912;30.300;2023-05-10T03:03:46;25.17;;;8.15;;
35917;SDS011;22011;59.912;30.300;2023-05-10T03:06:14;25.27;;;8.75;;
35917;SDS011;22011;59.912;30.300;2023-05-10T03:08:42;22.33;;;8.80;;
35917;SDS011;22011;59.912;30.300;2023-05-10T03:11:20;20.70;;;8.35;;
35917;SDS011;22011;59.912;30.300;2023-05-10T03:14:10;24.55;;;9.10;;
35917;SDS011;22011;59.912;30.300;2023-05-10T03:16:51;18.20;;;8.93;;
35917;SDS011;22011;59.912;30.300;2023-05-10T03:19:24;26.05;;;11.07;;
35917;SDS011;22011;59.912;30.300;2023-05-10T03:21:58;26.92;;;9.77;;
35917;SDS011;22011;59.912;30.300;2023-05-10T03:24:30;24.52;;;10.75;;
35917;SDS011;22011;59.912;30.300;2023-05-10T03:27:03;28.23;;;10.70;;
35917;SDS011;22011;59.912;30.300;2023-05-10T03:29:31;20.27;;;10.57;;
35917;SDS011;22011;59.912;30.300;2023-05-10T03:32:00;25.88;;;11.73;;
35917;SDS011;22011;59.912;30.300;2023-05-10T03:34:30;26.80;;;11.27;;
35917;SDS011;22011;59.912;30.300;2023-05-10T03:36:58;21.60;;;11.30;;
35917;SDS011;22011;59.912;30.300;2023-05-10T03:39:28;26.35;;;10.82;;
35917;SDS011;22011;59.912;30.300;2023-05-10T03:41:58;20.38;;;10.70;;
35917;SDS011;22011;59.912;30.300;2023-05-10T03:44:27;23.50;;;10.70;;
35917;SDS011;22011;59.912;30.300;2023-05-10T03:46:54;19.67;;;9.60;;
35917;SDS011;22011;59.912;30.300;2023-05-10T03:49:23;20.10;;;9.82;;
35917;SDS011;22011;59.912;30.300;2023-05-10T03:51:50;23.05;;;10.57;;
35917;SDS011;22011;59.912;30.300;2023-05-10T03:54:18;15.30;;;8.73;;
35917;SDS011;22011;59.912;30.300;2023-05-10T03:56:46;19.42;;;9.40;;
35917;SDS011;22011;59.912;30.300;2023-05-10T03:59:14;21.63;;;9.82;;
35917;SDS011;22011;59.912;30.300;2023-05-10T04:01:43;14.30;;;8.95;;
35917;SDS011;22011;59.912;30.300;2023-05-10T04:04:11;15.90;;;8.60;;
35917;SDS011;22011;59.912;30.300;2023-05-10T04:06:38;15.85;;;7.50;;
35917;SDS011;22011;59.912;30.300;2023-05-10T04:09:05;12.50;;;8.55;;
35917;SDS011;22011;59.912;30.300;2023-05-10T04:11:34;15.77;;;7.57;;
35917;SDS011;22011;59.912;30.300;2023-05-10T04:14:01;17.13;;;8.43;;
35917;SDS011;22011;59.912;30.300;2023-05-10T04:16:29;16.67;;;7.55;;
35917;SDS011;22011;59.912;30.300;2023-05-10T04:18:57;11.27;;;7.75;;
35917;SDS011;22011;59.912;30.300;2023-05-10T04:21:25;13.68;;;7.28;;
35917;SDS011;22011;59.912;30.300;2023-05-10T04:23:52;15.68;;;6.95;;
35917;SDS011;22011;59.912;30.300;2023-05-10T04:26:20;11.60;;;6.90;;
35917;SDS011;22011;59.912;30.300;2023-05-10T04:28:47;14.63;;;6.90;;
35917;SDS011;22011;59.912;30.300;2023-05-10T04:31:15;17.48;;;6.97;;
35917;SDS011;22011;59.912;30.300;2023-05-10T04:33:43;11.32;;;6.55;;
35917;SDS011;22011;59.912;30.300;2023-05-10T04:36:11;14.60;;;6.05;;
35917;SDS011;22011;59.912;30.300;2023-05-10T04:38:39;9.57;;;4.97;;
35917;SDS011;22011;59.912;30.300;2023-05-10T04:41:07;10.30;;;4.90;;
35917;SDS011;22011;59.912;30.300;2023-05-10T04:43:35;7.78;;;5.40;;
35917;SDS011;22011;59.912;30.300;2023-05-10T04:46:03;8.80;;;3.75;;
35917;SDS011;22011;59.912;30.300;2023-05-10T04:48:31;6.30;;;4.07;;
35917;SDS011;22011;59.912;30.300;2023-05-10T04:50:59;6.88;;;4.28;;
35917;SDS011;22011;59.912;30.300;2023-05-10T04:53:28;7.60;;;4.35;;
35917;SDS011;22011;59.912;30.300;2023-05-10T04:55:55;9.90;;;4.57;;
35917;SDS011;22011;59.912;30.300;2023-05-10T04:58:22;7.15;;;5.03;;
35917;SDS011;22011;59.912;30.300;2023-05-10T05:00:50;7.30;;;4.80;;
35917;SDS011;22011;59.912;30.300;2023-05-10T05:03:17;14.90;;;4.65;;
35917;SDS011;22011;59.912;30.300;2023-05-10T05:05:45;6.63;;;4.32;;
35917;SDS011;22011;59.912;30.300;2023-05-10T05:08:12;7.03;;;3.90;;
35917;SDS011;22011;59.912;30.300;2023-05-10T05:10:41;8.02;;;4.15;;
35917;SDS011;22011;59.912;30.300;2023-05-10T05:13:08;6.38;;;3.92;;
35917;SDS011;22011;59.912;30.300;2023-05-10T05:15:36;6.53;;;4.50;;
35917;SDS011;22011;59.912;30.300;2023-05-10T05:18:03;6.82;;;3.90;;
35917;SDS011;22011;59.912;30.300;2023-05-10T05:20:31;4.70;;;3.92;;
35917;SDS011;22011;59.912;30.300;2023-05-10T05:22:59;8.35;;;4.28;;
35917;SDS011;22011;59.912;30.300;2023-05-10T05:25:27;6.10;;;3.75;;
35917;SDS011;22011;59.912;30.300;2023-05-10T05:27:56;4.78;;;3.42;;
35917;SDS011;22011;59.912;30.300;2023-05-10T05:30:23;6.20;;;3.72;;
35917;SDS011;22011;59.912;30.300;2023-05-10T05:32:50;6.90;;;3.80;;
35917;SDS011;22011;59.912;30.300;2023-05-10T05:35:18;10.75;;;4.10;;
35917;SDS011;22011;59.912;30.300;2023-05-10T05:37:45;8.60;;;4.22;;
35917;SDS011;22011;59.912;30.300;2023-05-10T05:40:13;5.97;;;4.03;;
35917;SDS011;22011;59.912;30.300;2023-05-10T05:42:40;7.95;;;4.25;;
35917;SDS011;22011;59.912;30.300;2023-05-10T05:45:10;12.63;;;4.00;;
35917;SDS011;22011;59.912;30.300;2023-05-10T05:47:38;37.45;;;6.97;;
35917;SDS011;22011;59.912;30.300;2023-05-10T05:50:06;17.27;;;4.57;;
35917;SDS011;22011;59.912;30.300;2023-05-10T05:52:34;8.80;;;3.92;;
35917;SDS011;22011;59.912;30.300;2023-05-10T05:55:01;8.23;;;3.40;;
35917;SDS011;22011;59.912;30.300;2023-05-10T05:57:29;5.93;;;3.60;;
35917;SDS011;22011;59.912;30.300;2023-05-10T05:59:57;6.93;;;3.42;;
35917;SDS011;22011;59.912;30.300;2023-05-10T06:02:26;7.70;;;3.28;;
35917;SDS011;22011;59.912;30.300;2023-05-10T06:04:53;7.20;;;3.47;;
35917;SDS011;22011;59.912;30.300;2023-05-10T06:07:21;6.35;;;2.70;;
35917;SDS011;22011;59.912;30.300;2023-05-10T06:09:48;3.92;;;2.55;;
35917;SDS011;22011;59.912;30.300;2023-05-10T06:12:16;6.35;;;3.25;;
35917;SDS011;22011;59.912;30.300;2023-05-10T06:14:43;4.10;;;2.67;;
35917;SDS011;22011;59.912;30.300;2023-05-10T06:17:10;3.30;;;2.55;;
35917;SDS011;22011;59.912;30.300;2023-05-10T06:19:39;3.63;;;2.30;;
35917;SDS011;22011;59.912;30.300;2023-05-10T06:22:07;3.92;;;2.35;;
35917;SDS011;22011;59.912;30.300;2023-05-10T06:24:34;6.20;;;2.78;;
35917;SDS011;22011;59.912;30.300;2023-05-10T06:27:01;7.28;;;2.47;;
35917;SDS011;22011;59.912;30.300;2023-05-10T06:29:29;5.90;;;2.45;;
35917;SDS011;22011;59.912;30.300;2023-05-10T06:31:57;6.20;;;2.90;;
35917;SDS011;22011;59.912;30.300;2023-05-10T06:34:24;8.30;;;3.05;;
35917;SDS011;22011;59.912;30.300;2023-05-10T06:36:53;5.20;;;3.25;;
35917;SDS011;22011;59.912;30.300;2023-05-10T06:39:20;5.95;;;2.45;;
35917;SDS011;22011;59.912;30.300;2023-05-10T06:41:48;4.20;;;2.33;;
35917;SDS011;22011;59.912;30.300;2023-05-10T06:44:15;4.10;;;2.33;;
35917;SDS011;22011;59.912;30.300;2023-05-10T06:46:43;7.03;;;2.60;;
35917;SDS011;22011;59.912;30.300;2023-05-10T06:49:10;4.18;;;2.78;;
35917;SDS011;22011;59.912;30.300;2023-05-10T06:51:38;6.30;;;2.80;;
35917;SDS011;22011;59.912;30.300;2023-05-10T06:54:07;6.45;;;2.78;;
35917;SDS011;22011;59.912;30.300;2023-05-10T06:56:34;6.13;;;2.47;;
35917;SDS011;22011;59.912;30.300;2023-05-10T06:59:02;4.70;;;2.35;;
35917;SDS011;22011;59.912;30.300;2023-05-10T07:01:29;6.25;;;2.80;;
35917;SDS011;22011;59.912;30.300;2023-05-10T07:03:57;5.55;;;2.70;;
35917;SDS011;22011;59.912;30.300;2023-05-10T07:06:24;7.25;;;3.08;;
35917;SDS011;22011;59.912;30.300;2023-05-10T07:08:51;11.05;;;2.92;;
35917;SDS011;22011;59.912;30.300;2023-05-10T07:11:20;4.72;;;2.42;;
35917;SDS011;22011;59.912;30.300;2023-05-10T07:13:48;10.00;;;3.03;;
35917;SDS011;22011;59.912;30.300;2023-05-10T07:16:15;2.55;;;2.30;;
35917;SDS011;22011;59.912;30.300;2023-05-10T07:18:43;4.57;;;2.30;;
35917;SDS011;22011;59.912;30.300;2023-05-10T07:21:10;5.15;;;2.20;;
35917;SDS011;22011;59.912;30.300;2023-05-10T07:23:37;3.58;;;2.40;;
35917;SDS011;22011;59.912;30.300;2023-05-10T07:26:05;6.43;;;2.50;;
35917;SDS011;22011;59.912;30.300;2023-05-10T07:28:34;6.05;;;2.50;;
35917;SDS011;22011;59.912;30.300;2023-05-10T07:31:03;9.48;;;2.55;;
35917;SDS011;22011;59.912;30.300;2023-05-10T07:33:30;8.00;;;2.58;;
35917;SDS011;22011;59.912;30.300;2023-05-10T07:35:57;5.45;;;2.33;;
35917;SDS011;22011;59.912;30.300;2023-05-10T07:38:25;8.45;;;2.88;;
35917;SDS011;22011;59.912;30.300;2023-05-10T07:40:52;8.60;;;2.72;;
35917;SDS011;22011;59.912;30.300;2023-05-10T07:43:20;4.93;;;2.20;;
35917;SDS011;22011;59.912;30.300;2023-05-10T07:45:48;4.10;;;1.95;;
35917;SDS011;22011;59.912;30.300;2023-05-10T07:48:16;4.25;;;3.17;;
35917;SDS011;22011;59.912;30.300;2023-05-10T07:50:43;8.90;;;2.67;;
35917;SDS011;22011;59.912;30.300;2023-05-10T07:53:11;4.25;;;2.53;;
35917;SDS011;22011;59.912;30.300;2023-05-10T07:55:38;3.95;;;2.50;;
35917;SDS011;22011;59.912;30.300;2023-05-10T07:58:06;5.15;;;2.30;;
35917;SDS011;22011;59.912;30.300;2023-05-10T08:00:33;3.45;;;2.28;;
35917;SDS011;22011;59.912;30.300;2023-05-10T08:03:02;2.60;;;2.20;;
35917;SDS011;22011;59.912;30.300;2023-05-10T08:05:30;7.47;;;2.53;;
35917;SDS011;22011;59.912;30.300;2023-05-10T08:07:57;3.78;;;2.50;;
35917;SDS011;22011;59.912;30.300;2023-05-10T08:10:25;2.53;;;2.33;;
35917;SDS011;22011;59.912;30.300;2023-05-10T08:12:52;3.28;;;2.45;;
35917;SDS011;22011;59.912;30.300;2023-05-10T08:15:20;4.00;;;2.63;;
35917;SDS011;22011;59.912;30.300;2023-05-10T08:17:47;2.92;;;1.90;;
35917;SDS011;22011;59.912;30.300;2023-05-10T08:20:16;2.65;;;2.10;;
35917;SDS011;22011;59.912;30.300;2023-05-10T08:22:44;4.30;;;2.50;;
35917;SDS011;22011;59.912;30.300;2023-05-10T08:25:12;5.40;;;2.13;;
35917;SDS011;22011;59.912;30.300;2023-05-10T08:27:39;3.60;;;2.00;;
35917;SDS011;22011;59.912;30.300;2023-05-10T08:30:07;3.20;;;2.15;;
35917;SDS011;22011;59.912;30.300;2023-05-10T08:32:35;11.85;;;2.20;;
35917;SDS011;22011;59.912;30.300;2023-05-10T08:35:03;4.07;;;2.30;;
35917;SDS011;22011;59.912;30.300;2023-05-10T08:37:33;2.85;;;1.90;;
35917;SDS011;22011;59.912;30.300;2023-05-10T08:40:00;2.92;;;2.13;;
35917;SDS011;22011;59.912;30.300;2023-05-10T08:42:28;6.47;;;2.40;;
35917;SDS011;22011;59.912;30.300;2023-05-10T08:44:58;2.25;;;1.98;;
35917;SDS011;22011;59.912;30.300;2023-05-10T08:47:27;8.30;;;2.00;;
35917;SDS011;22011;59.912;30.300;2023-05-10T08:49:56;3.67;;;2.25;;
35917;SDS011;22011;59.912;30.300;2023-05-10T08:52:25;3.38;;;1.75;;
35917;SDS011;22011;59.912;30.300;2023-05-10T08:54:56;4.77;;;1.90;;
35917;SDS011;22011;59.912;30.300;2023-05-10T08:57:23;2.33;;;1.80;;
35917;SDS011;22011;59.912;30.300;2023-05-10T08:59:51;4.57;;;1.92;;
35917;SDS011;22011;59.912;30.300;2023-05-10T09:02:19;7.18;;;1.75;;
35917;SDS011;22011;59.912;30.300;2023-05-10T09:04:47;4.20;;;1.85;;
35917;SDS011;22011;59.912;30.300;2023-05-10T09:07:15;3.05;;;2.20;;
35917;SDS011;22011;59.912;30.300;2023-05-10T09:09:43;6.20;;;2.08;;
35917;SDS011;22011;59.912;30.300;2023-05-10T09:12:14;3.50;;;1.60;;
35917;SDS011;22011;59.912;30.300;2023-05-10T09:14:42;3.40;;;2.40;;
35917;SDS011;22011;59.912;30.300;2023-05-10T09:17:11;8.40;;;2.00;;
35917;SDS011;22011;59.912;30.300;2023-05-10T09:19:39;2.83;;;1.83;;
35917;SDS011;22011;59.912;30.300;2023-05-10T09:22:06;6.38;;;1.95;;
35917;SDS011;22011;59.912;30.300;2023-05-10T09:24:34;2.20;;;1.55;;
35917;SDS011;22011;59.912;30.300;2023-05-10T09:27:02;9.43;;;2.28;;
35917;SDS011;22011;59.912;30.300;2023-05-10T09:29:39;3.88;;;2.20;;
35917;SDS011;22011;59.912;30.300;2023-05-10T09:32:08;5.30;;;2.03;;
35917;SDS011;22011;59.912;30.300;2023-05-10T09:34:35;8.43;;;1.95;;
35917;SDS011;22011;59.912;30.300;2023-05-10T09:37:05;7.90;;;2.00;;
35917;SDS011;22011;59.912;30.300;2023-05-10T09:39:34;7.40;;;1.88;;
35917;SDS011;22011;59.912;30.300;2023-05-10T09:42:03;5.57;;;2.35;;
35917;SDS011;22011;59.912;30.300;2023-05-10T09:44:32;4.17;;;1.63;;
35917;SDS011;22011;59.912;30.300;2023-05-10T09:47:01;5.63;;;1.95;;
35917;SDS011;22011;59.912;30.300;2023-05-10T09:49:29;4.20;;;2.50;;
35917;SDS011;22011;59.912;30.300;2023-05-10T09:52:01;6.18;;;2.25;;
35917;SDS011;22011;59.912;30.300;2023-05-10T09:54:29;3.80;;;2.15;;
35917;SDS011;22011;59.912;30.300;2023-05-10T09:56:57;5.13;;;1.88;;
35917;SDS011;22011;59.912;30.300;2023-05-10T09:59:25;6.00;;;2.05;;
35917;SDS011;22011;59.912;30.300;2023-05-10T10:01:55;4.22;;;1.80;;
35917;SDS011;22011;59.912;30.300;2023-05-10T10:04:24;4.85;;;1.92;;
35917;SDS011;22011;59.912;30.300;2023-05-10T10:06:58;5.78;;;1.90;;
35917;SDS011;22011;59.912;30.300;2023-05-10T10:09:28;2.00;;;1.40;;
35917;SDS011;22011;59.912;30.300;2023-05-10T10:11:55;3.15;;;1.40;;
35917;SDS011;22011;59.912;30.300;2023-05-10T10:14:23;3.30;;;1.60;;
35917;SDS011;22011;59.912;30.300;2023-05-10T10:16:51;2.63;;;1.60;;
35917;SDS011;22011;59.912;30.300;2023-05-10T10:19:19;3.58;;;1.70;;
35917;SDS011;22011;59.912;30.300;2023-05-10T10:21:48;5.10;;;1.83;;
35917;SDS011;22011;59.912;30.300;2023-05-10T10:24:16;4.13;;;1.55;;
35917;SDS011;22011;59.912;30.300;2023-05-10T10:26:44;2.83;;;1.50;;
35917;SDS011;22011;59.912;30.300;2023-05-10T10:31:48;3.63;;;1.58;;
35917;SDS011;22011;59.912;30.300;2023-05-10T10:34:25;7.03;;;1.70;;
35917;SDS011;22011;59.912;30.300;2023-05-10T10:36:56;4.40;;;1.77;;
35917;SDS011;22011;59.912;30.300;2023-05-10T10:39:24;3.33;;;1.70;;
35917;SDS011;22011;59.912;30.300;2023-05-10T10:41:53;1.88;;;1.50;;
35917;SDS011;22011;59.912;30.300;2023-05-10T10:44:23;5.65;;;1.83;;
35917;SDS011;22011;59.912;30.300;2023-05-10T10:47:05;2.28;;;1.70;;
35917;SDS011;22011;59.912;30.300;2023-05-10T10:49:42;4.97;;;1.73;;
35917;SDS011;22011;59.912;30.300;2023-05-10T10:52:23;5.85;;;1.77;;
35917;SDS011;22011;59.912;30.300;2023-05-10T10:54:57;2.17;;;1.45;;
35917;SDS011;22011;59.912;30.300;2023-05-10T10:57:27;3.13;;;1.50;;
35917;SDS011;22011;59.912;30.300;2023-05-10T11:02:53;3.05;;;1.55;;
35917;SDS011;22011;59.912;30.300;2023-05-10T11:07:52;2.13;;;1.40;;
35917;SDS011;22011;59.912;30.300;2023-05-10T11:10:20;3.83;;;1.90;;
35917;SDS011;22011;59.912;30.300;2023-05-10T11:12:51;4.03;;;1.95;;
35917;SDS011;22011;59.912;30.300;2023-05-10T11:15:20;4.10;;;1.30;;
35917;SDS011;22011;59.912;30.300;2023-05-10T11:17:55;11.10;;;2.60;;
35917;SDS011;22011;59.912;30.300;2023-05-10T11:20:22;6.78;;;1.75;;
35917;SDS011;22011;59.912;30.300;2023-05-10T11:22:56;3.95;;;1.55;;
35917;SDS011;22011;59.912;30.300;2023-05-10T11:25:26;3.00;;;1.70;;
35917;SDS011;22011;59.912;30.300;2023-05-10T11:27:54;3.40;;;1.70;;
35917;SDS011;22011;59.912;30.300;2023-05-10T11:30:22;6.25;;;2.38;;
35917;SDS011;22011;59.912;30.300;2023-05-10T11:32:50;7.90;;;2.00;;
35917;SDS011;22011;59.912;30.300;2023-05-10T11:35:17;14.45;;;4.53;;
35917;SDS011;22011;59.912;30.300;2023-05-10T11:37:47;2.88;;;1.77;;
35917;SDS011;22011;59.912;30.300;2023-05-10T11:42:44;5.40;;;1.60;;
35917;SDS011;22011;59.912;30.300;2023-05-10T11:45:12;7.95;;;2.15;;
35917;SDS011;22011;59.912;30.300;2023-05-10T11:47:39;11.52;;;1.80;;
35917;SDS011;22011;59.912;30.300;2023-05-10T11:50:09;5.20;;;1.97;;
35917;SDS011;22011;59.912;30.300;2023-05-10T11:52:38;3.27;;;2.00;;
35917;SDS011;22011;59.912;30.300;2023-05-10T11:55:05;5.65;;;2.00;;
35917;SDS011;22011;59.912;30.300;2023-05-10T11:57:35;4.47;;;2.15;;
35917;SDS011;22011;59.912;30.300;2023-05-10T12:00:04;3.30;;;1.58;;
35917;SDS011;22011;59.912;30.300;2023-05-10T12:02:33;14.18;;;2.42;;
35917;SDS011;22011;59.912;30.300;2023-05-10T12:05:01;10.27;;;2.38;;
35917;SDS011;22011;59.912;30.300;2023-05-10T12:07:30;8.85;;;2.40;;
35917;SDS011;22011;59.912;30.300;2023-05-10T12:10:05;6.45;;;2.47;;
35917;SDS011;22011;59.912;30.300;2023-05-10T12:12:41;4.32;;;1.77;;
35917;SDS011;22011;59.912;30.300;2023-05-10T12:15:12;9.63;;;2.08;;
35917;SDS011;22011;59.912;30.300;2023-05-10T12:17:45;3.75;;;1.75;;
35917;SDS011;22011;59.912;30.300;2023-05-10T12:20:13;3.03;;;1.48;;
35917;SDS011;22011;59.912;30.300;2023-05-10T12:22:43;6.82;;;2.00;;
35917;SDS011;22011;59.912;30.300;2023-05-10T12:25:13;3.30;;;1.70;;
35917;SDS011;22011;59.912;30.300;2023-05-10T12:27:42;3.30;;;1.50;;
35917;SDS011;22011;59.912;30.300;2023-05-10T12:30:18;2.47;;;1.73;;
35917;SDS011;22011;59.912;30.300;2023-05-10T12:32:48;3.65;;;1.80;;
35917;SDS011;22011;59.912;30.300;2023-05-10T12:35:15;7.53;;;1.77;;
35917;SDS011;22011;59.912;30.300;2023-05-10T12:37:46;2.60;;;1.85;;
35917;SDS011;22011;59.912;30.300;2023-05-10T12:40:14;2.00;;;1.80;;
35917;SDS011;22011;59.912;30.300;2023-05-10T12:42:43;7.13;;;2.00;;
35917;SDS011;22011;59.912;30.300;2023-05-10T12:45:11;43.58;;;8.30;;
35917;SDS011;22011;59.912;30.300;2023-05-10T12:47:39;4.32;;;2.15;;
35917;SDS011;22011;59.912;30.300;2023-05-10T12:50:06;35.85;;;6.00;;
35917;SDS011;22011;59.912;30.300;2023-05-10T12:52:34;37.78;;;3.45;;
35917;SDS011;22011;59.912;30.300;2023-05-10T12:55:03;2.42;;;1.80;;
35917;SDS011;22011;59.912;30.300;2023-05-10T12:57:31;3.25;;;1.83;;
35917;SDS011;22011;59.912;30.300;2023-05-10T13:00:00;5.10;;;1.83;;
35917;SDS011;22011;59.912;30.300;2023-05-10T13:02:28;3.22;;;1.80;;
35917;SDS011;22011;59.912;30.300;2023-05-10T13:04:55;3.92;;;2.38;;
35917;SDS011;22011;59.912;30.300;2023-05-10T13:07:23;6.32;;;2.00;;
35917;SDS011;22011;59.912;30.300;2023-05-10T13:09:51;2.47;;;1.60;;
35917;SDS011;22011;59.912;30.300;2023-05-10T13:12:18;5.47;;;2.03;;
35917;SDS011;22011;59.912;30.300;2023-05-10T13:14:45;7.00;;;2.10;;
35917;SDS011;22011;59.912;30.300;2023-05-10T13:17:14;3.38;;;1.67;;
35917;SDS011;22011;59.912;30.300;2023-05-10T13:19:41;3.20;;;1.80;;
35917;SDS011;22011;59.912;30.300;2023-05-10T13:22:09;4.18;;;1.73;;
35917;SDS011;22011;59.912;30.300;2023-05-10T13:24:37;14.40;;;2.10;;
35917;SDS011;22011;59.912;30.300;2023-05-10T13:27:04;4.68;;;1.67;;
35917;SDS011;22011;59.912;30.300;2023-05-10T13:29:31;2.90;;;1.90;;
35917;SDS011;22011;59.912;30.300;2023-05-10T13:31:59;6.50;;;2.03;;
35917;SDS011;22011;59.912;30.300;2023-05-10T13:34:28;10.05;;;1.73;;
35917;SDS011;22011;59.912;30.300;2023-05-10T13:36:55;8.20;;;1.60;;
35917;SDS011;22011;59.912;30.300;2023-05-10T13:39:23;4.53;;;1.55;;
35917;SDS011;22011;59.912;30.300;2023-05-10T13:41:50;3.75;;;1.35;;
35917;SDS011;22011;59.912;30.300;2023-05-10T13:44:18;6.32;;;1.95;;
35917;SDS011;22011;59.912;30.300;2023-05-10T13:46:47;3.72;;;1.65;;
35917;SDS011;22011;59.912;30.300;2023-05-10T13:49:14;4.53;;;1.80;;
35917;SDS011;22011;59.912;30.300;2023-05-10T13:51:43;3.78;;;1.80;;
35917;SDS011;22011;59.912;30.300;2023-05-10T13:54:11;8.73;;;1.73;;
35917;SDS011;22011;59.912;30.300;2023-05-10T13:56:38;4.00;;;2.08;;
35917;SDS011;22011;59.912;30.300;2023-05-10T13:59:06;3.63;;;1.40;;
35917;SDS011;22011;59.912;30.300;2023-05-10T14:01:34;14.48;;;2.05;;
35917;SDS011;22011;59.912;30.300;2023-05-10T14:04:02;4.28;;;1.88;;
35917;SDS011;22011;59.912;30.300;2023-05-10T14:06:29;4.22;;;1.75;;
35917;SDS011;22011;59.912;30.300;2023-05-10T14:08:58;6.75;;;1.73;;
35917;SDS011;22011;59.912;30.300;2023-05-10T14:11:25;4.60;;;2.30;;
35917;SDS011;22011;59.912;30.300;2023-05-10T14:13:53;6.75;;;1.98;;
35917;SDS011;22011;59.912;30.300;2023-05-10T14:16:20;7.22;;;1.75;;
35917;SDS011;22011;59.912;30.300;2023-05-10T14:18:48;8.00;;;1.80;;
35917;SDS011;22011;59.912;30.300;2023-05-10T14:21:15;5.85;;;1.67;;
35917;SDS011;22011;59.912;30.300;2023-05-10T14:23:42;3.47;;;1.80;;
35917;SDS011;22011;59.912;30.300;2023-05-10T14:26:11;1.95;;;1.40;;
35917;SDS011;22011;59.912;30.300;2023-05-10T14:28:40;3.15;;;1.60;;
35917;SDS011;22011;59.912;30.300;2023-05-10T14:31:08;4.40;;;1.63;;
35917;SDS011;22011;59.912;30.300;2023-05-10T14:33:35;2.30;;;1.40;;
35917;SDS011;22011;59.912;30.300;2023-05-10T14:36:03;2.85;;;1.58;;
35917;SDS011;22011;59.912;30.300;2023-05-10T14:38:30;4.38;;;1.90;;
35917;SDS011;22011;59.912;30.300;2023-05-10T14:40:58;2.58;;;1.33;;
35917;SDS011;22011;59.912;30.300;2023-05-10T14:43:27;3.25;;;1.75;;
35917;SDS011;22011;59.912;30.300;2023-05-10T14:45:54;2.42;;;1.70;;
35917;SDS011;22011;59.912;30.300;2023-05-10T14:48:22;4.85;;;1.67;;
35917;SDS011;22011;59.912;30.300;2023-05-10T14:50:49;3.53;;;1.67;;
35917;SDS011;22011;59.912;30.300;2023-05-10T14:53:18;2.13;;;1.48;;